Lodestar Genesis — S6BJ3 — position and weather

sailwx.info

Track history (hours):
 
Tides and Currents Weather Stations Pressure Air Temp Water Temp Dewpoint Dewpoint Depression Visibility Wind Speed Wind Dir Waves Ship Positions

Lodestar Genesis

Last reported at 2018-Jun-14 14:07 UTC. Time now 2018-Jun-18 03:48 UTC.
Position N 30°59' E 122°32'.

Length 134 m; draft 5.1 m.

Type: Ship (hazmat cat B). MMSI: 566726000.

Date/timePositionNaut miles runAvg speedWind from/ knotsBaromVisibWave heightAir tempDewpointWater temp
2018-Jun-14 14:07N 30°59' E 122°32'110.3
2018-Jun-14 13:58N 30°59' E 122°31'5 9.9
2018-Jun-14 13:30N 31°00' E 122°25'510.3
2018-Jun-14 13:00N 31°02' E 122°20'510.0
2018-Jun-14 12:30N 31°02' E 122°14'4 6.4
2018-Jun-14 11:57N 31°03' E 122°10'4 9.5
2018-Jun-14 11:30N 31°04' E 122°05'611.9
2018-Jun-14 11:00N 31°06' E 121°58'612.3
2018-Jun-14 10:30N 31°09' E 121°52'5 9.8
2018-Jun-14 10:00N 31°13' E 121°48'  
2018-Jun-12 02:56N 31°13' E 121°49'613.9
2018-Jun-12 02:30N 31°09' E 121°54'611.7
2018-Jun-12 02:00N 31°06' E 121°60'611.8
2018-Jun-12 01:30N 31°04' E 122°06'611.4
2018-Jun-12 01:00N 31°03' E 122°13'5 9.1
2018-Jun-12 00:30N 31°02' E 122°18'4 8.1
2018-Jun-12 00:00N 31°02' E 122°23'4 7.4
2018-Jun-11 23:30N 31°01' E 122°27'4 7.2
2018-Jun-11 23:00N 31°00' E 122°31'4 8.7
2018-Jun-11 22:30N 31°01' E 122°36'0 0.8
2018-Jun-11 22:00N 31°01' E 122°36'0 0.1
2018-Jun-11 21:30N 31°01' E 122°36'0 0.1
2018-Jun-11 21:00N 31°01' E 122°36'0 0.0
2018-Jun-11 20:27N 31°01' E 122°36'0 0.0
2018-Jun-11 19:54N 31°01' E 122°36'0 0.0
2018-Jun-11 18:27N 31°01' E 122°37'0 0.0
2018-Jun-11 18:00N 31°01' E 122°37'0 0.0
2018-Jun-11 17:30N 31°01' E 122°37'0 0.0
2018-Jun-11 16:39N 31°01' E 122°37'0 0.0
2018-Jun-11 16:09N 31°01' E 122°37'0 0.0
2018-Jun-11 15:54N 31°01' E 122°37'0 0.1
2018-Jun-11 15:30N 31°01' E 122°36'0 0.0
2018-Jun-11 15:00N 31°01' E 122°36'0 0.1
2018-Jun-11 14:30N 31°01' E 122°36'0 0.1
2018-Jun-11 13:45N 31°01' E 122°36'0 0.0
2018-Jun-11 13:06N 31°01' E 122°36'0 0.0
2018-Jun-11 12:51N 31°01' E 122°36'0 0.0
2018-Jun-11 12:30N 31°01' E 122°36'0 0.0
2018-Jun-11 12:00N 31°01' E 122°36'0 0.0
2018-Jun-11 11:21N 31°01' E 122°36'0 0.2
2018-Jun-11 10:57N 31°01' E 122°36'  
2018-Jun-09 05:57N 31°01' E 122°37'0 0.0
2018-Jun-09 01:39N 31°01' E 122°37'0 0.0
2018-Jun-09 01:15N 31°01' E 122°37'0 0.0
2018-Jun-09 00:51N 31°01' E 122°37'0 0.0
2018-Jun-08 21:39N 31°01' E 122°36'0 0.0
2018-Jun-08 20:39N 31°01' E 122°36'0 0.0
2018-Jun-08 16:30N 31°01' E 122°37'0 0.0
2018-Jun-08 11:12N 31°01' E 122°37'0 0.0
2018-Jun-08 02:45N 31°01' E 122°37'0 0.0
2018-Jun-08 00:27N 31°01' E 122°37'0 0.0
2018-Jun-08 00:00N 31°01' E 122°37'2 3.0
2018-Jun-07 23:27N 31°01' E 122°39'510.5
2018-Jun-07 23:00N 31°01' E 122°44'2012.6
2018-Jun-07 21:27N 30°55' E 123°06'51312.8
2018-Jun-06 05:22N 22°50' E 119°56'513.7
2018-Jun-06 04:58N 22°45' E 119°55'613.4
2018-Jun-06 04:29N 22°38' E 119°55'713.3
2018-Jun-06 03:59N 22°32' E 119°55'612.7
2018-Jun-06 03:30N 22°26' E 119°52'  
Track history (hours):
 
Tides and Currents Weather Stations Pressure Air Temp Water Temp Dewpoint Dewpoint Depression Visibility Wind Speed Wind Dir Waves Ship Positions

Lodestar Genesis

Last reported at 2018-Jun-14 14:07 UTC. Time now 2018-Jun-18 03:48 UTC.
Position N 30°59' E 122°32'.

Length 134 m; draft 5.1 m.

Type: Ship (hazmat cat B). MMSI: 566726000.

Date/timePositionNaut miles runAvg speedWind from/ knotsBaromVisibWave heightAir tempDewpointWater temp
2018-Jun-14 14:07N 30°59' E 122°32'110.3
2018-Jun-14 13:58N 30°59' E 122°31'5 9.9
2018-Jun-14 13:30N 31°00' E 122°25'510.3
2018-Jun-14 13:00N 31°02' E 122°20'510.0
2018-Jun-14 12:30N 31°02' E 122°14'4 6.4
2018-Jun-14 11:57N 31°03' E 122°10'4 9.5
2018-Jun-14 11:30N 31°04' E 122°05'611.9
2018-Jun-14 11:00N 31°06' E 121°58'612.3
2018-Jun-14 10:30N 31°09' E 121°52'5 9.8
2018-Jun-14 10:00N 31°13' E 121°48'  
2018-Jun-12 02:56N 31°13' E 121°49'613.9
2018-Jun-12 02:30N 31°09' E 121°54'611.7
2018-Jun-12 02:00N 31°06' E 121°60'611.8
2018-Jun-12 01:30N 31°04' E 122°06'611.4
2018-Jun-12 01:00N 31°03' E 122°13'5 9.1
2018-Jun-12 00:30N 31°02' E 122°18'4 8.1
2018-Jun-12 00:00N 31°02' E 122°23'4 7.4
2018-Jun-11 23:30N 31°01' E 122°27'4 7.2
2018-Jun-11 23:00N 31°00' E 122°31'4 8.7
2018-Jun-11 22:30N 31°01' E 122°36'0 0.8
2018-Jun-11 22:00N 31°01' E 122°36'0 0.1
2018-Jun-11 21:30N 31°01' E 122°36'0 0.1
2018-Jun-11 21:00N 31°01' E 122°36'0 0.0
2018-Jun-11 20:27N 31°01' E 122°36'0 0.0
2018-Jun-11 19:54N 31°01' E 122°36'0 0.0
2018-Jun-11 18:27N 31°01' E 122°37'0 0.0
2018-Jun-11 18:00N 31°01' E 122°37'0 0.0
2018-Jun-11 17:30N 31°01' E 122°37'0 0.0
2018-Jun-11 16:39N 31°01' E 122°37'0 0.0
2018-Jun-11 16:09N 31°01' E 122°37'0 0.0
2018-Jun-11 15:54N 31°01' E 122°37'0 0.1
2018-Jun-11 15:30N 31°01' E 122°36'0 0.0
2018-Jun-11 15:00N 31°01' E 122°36'0 0.1
2018-Jun-11 14:30N 31°01' E 122°36'0 0.1
2018-Jun-11 13:45N 31°01' E 122°36'0 0.0
2018-Jun-11 13:06N 31°01' E 122°36'0 0.0
2018-Jun-11 12:51N 31°01' E 122°36'0 0.0
2018-Jun-11 12:30N 31°01' E 122°36'0 0.0
2018-Jun-11 12:00N 31°01' E 122°36'0 0.0
2018-Jun-11 11:21N 31°01' E 122°36'0 0.2
2018-Jun-11 10:57N 31°01' E 122°36'  
2018-Jun-09 05:57N 31°01' E 122°37'0 0.0
2018-Jun-09 01:39N 31°01' E 122°37'0 0.0
2018-Jun-09 01:15N 31°01' E 122°37'0 0.0
2018-Jun-09 00:51N 31°01' E 122°37'0 0.0
2018-Jun-08 21:39N 31°01' E 122°36'0 0.0
2018-Jun-08 20:39N 31°01' E 122°36'0 0.0
2018-Jun-08 16:30N 31°01' E 122°37'0 0.0
2018-Jun-08 11:12N 31°01' E 122°37'0 0.0
2018-Jun-08 02:45N 31°01' E 122°37'0 0.0
2018-Jun-08 00:27N 31°01' E 122°37'0 0.0
2018-Jun-08 00:00N 31°01' E 122°37'2 3.0
2018-Jun-07 23:27N 31°01' E 122°39'510.5
2018-Jun-07 23:00N 31°01' E 122°44'2012.6
2018-Jun-07 21:27N 30°55' E 123°06'51312.8
2018-Jun-06 05:22N 22°50' E 119°56'513.7
2018-Jun-06 04:58N 22°45' E 119°55'613.4
2018-Jun-06 04:29N 22°38' E 119°55'713.3
2018-Jun-06 03:59N 22°32' E 119°55'612.7
2018-Jun-06 03:30N 22°26' E 119°52'  

Dump ship's entire track history